Time;durP1;ratioP1;P1;durP2;ratioP2;P2;SDS_P1;SDS_P2;PMS_P1;PMS_P2;Temp;Humidity;BMP_temperature;BMP_pressure;BME280_temperature;BME280_humidity;BME280_pressure;Samples;Min_cycle;Max_cycle;Signal;HPM_P1;HPM_P2
2023/11/04 00:00:53;;;;;;;8.65;3.63;;;8.30;99.90;;;;;;4859315;29;20214;-62
2023/11/04 00:03:19;;;;;;;6.65;3.67;;;8.30;99.90;;;;;;4859633;29;20224;-69
2023/11/04 00:05:46;;;;;;;6.97;3.90;;;8.30;99.90;;;;;;4822759;29;1092809;-62
2023/11/04 00:08:13;;;;;;;5.57;3.40;;;8.30;99.90;;;;;;4859501;29;20190;-62
2023/11/04 00:10:40;;;;;;;6.80;3.65;;;8.20;99.90;;;;;;4860602;29;20638;-62
2023/11/04 00:13:09;;;;;;;7.93;3.90;;;8.20;99.90;;;;;;4861065;29;20280;-62
2023/11/04 00:15:35;;;;;;;6.60;3.58;;;8.20;99.90;;;;;;4859450;29;20182;-61
2023/11/04 00:18:01;;;;;;;10.13;3.38;;;8.10;99.90;;;;;;4860750;29;20189;-63
2023/11/04 00:20:27;;;;;;;5.28;3.33;;;8.10;99.90;;;;;;4860322;29;20662;-61
2023/11/04 00:22:54;;;;;;;5.97;3.05;;;8.10;99.90;;;;;;4859151;29;20200;-63
2023/11/04 00:25:20;;;;;;;6.97;3.40;;;8.10;99.90;;;;;;4860457;29;20186;-65
2023/11/04 00:27:46;;;;;;;5.88;3.28;;;8.20;99.90;;;;;;4859422;29;20246;-62
2023/11/04 00:30:13;;;;;;;4.07;2.85;;;8.20;99.90;;;;;;4859813;29;20190;-63
2023/11/04 00:32:40;;;;;;;6.47;3.00;;;8.30;99.90;;;;;;4859513;29;20186;-61
2023/11/04 00:35:25;;;;;;;5.40;3.17;;;8.40;99.90;;;;;;4846939;29;20186;-63
2023/11/04 00:38:12;;;;;;;4.93;2.75;;;8.40;99.90;;;;;;4858670;29;20206;-65
2023/11/04 00:40:57;;;;;;;5.65;2.80;;;8.50;99.90;;;;;;4846689;29;20309;-64
2023/11/04 00:43:43;;;;;;;6.28;2.85;;;8.50;99.90;;;;;;4858894;29;20193;-64
2023/11/04 00:46:29;;;;;;;4.63;2.80;;;8.60;99.90;;;;;;4858782;29;20244;-61
2023/11/04 00:49:16;;;;;;;5.88;2.47;;;8.60;99.90;;;;;;4858601;29;20212;-66
2023/11/04 00:52:01;;;;;;;6.80;3.10;;;8.70;99.90;;;;;;4859300;29;20202;-63
2023/11/04 00:54:47;;;;;;;5.90;2.88;;;8.70;99.90;;;;;;4858660;29;20654;-64
2023/11/04 00:57:33;;;;;;;3.72;2.85;;;8.80;99.90;;;;;;4858217;29;20257;-66
2023/11/04 01:00:25;;;;;;;4.90;2.65;;;8.80;99.90;;;;;;4858634;29;20623;-64
2023/11/04 01:03:11;;;;;;;4.38;2.70;;;8.80;99.90;;;;;;4858771;29;20198;-61
2023/11/04 01:05:57;;;;;;;6.15;2.90;;;8.80;99.90;;;;;;4858376;29;20241;-66
2023/11/04 01:08:43;;;;;;;3.85;2.50;;;8.90;99.90;;;;;;4858774;29;20659;-67
2023/11/04 01:11:29;;;;;;;4.00;2.72;;;8.90;99.90;;;;;;4858880;29;20202;-62
2023/11/04 01:14:15;;;;;;;4.65;2.55;;;8.90;99.90;;;;;;4846192;29;20261;-67
2023/11/04 01:17:02;;;;;;;3.15;2.30;;;8.90;99.90;;;;;;4845788;29;20616;-65
2023/11/04 01:19:48;;;;;;;5.55;2.70;;;8.90;99.90;;;;;;4845775;29;20258;-62
2023/11/04 01:22:35;;;;;;;4.05;2.80;;;8.90;99.90;;;;;;4858741;29;20222;-62
2023/11/04 01:25:21;;;;;;;4.18;2.42;;;8.90;99.90;;;;;;4858864;29;20214;-61
2023/11/04 01:28:07;;;;;;;3.55;2.45;;;9.00;99.90;;;;;;4846024;29;20197;-64
2023/11/04 01:30:53;;;;;;;3.70;2.50;;;9.00;99.90;;;;;;4859316;29;20202;-63
2023/11/04 01:33:38;;;;;;;3.53;2.50;;;9.00;99.90;;;;;;4858814;29;20565;-62
2023/11/04 01:36:24;;;;;;;3.80;2.47;;;9.00;99.90;;;;;;4858465;29;20626;-67
2023/11/04 01:39:12;;;;;;;4.30;2.58;;;9.00;99.90;;;;;;4858375;29;20213;-62
2023/11/04 01:42:04;;;;;;;3.83;2.40;;;9.00;99.90;;;;;;4859111;29;20230;-68
2023/11/04 01:44:50;;;;;;;5.97;2.45;;;9.00;99.90;;;;;;4848945;29;20190;-65
2023/11/04 01:47:39;;;;;;;3.83;2.50;;;9.00;99.90;;;;;;4848748;29;20204;-67
2023/11/04 01:50:25;;;;;;;3.58;2.10;;;9.00;99.90;;;;;;4849811;29;20666;-63
2023/11/04 01:53:11;;;;;;;4.47;2.65;;;9.00;99.90;;;;;;4848900;29;20209;-62
2023/11/04 01:55:57;;;;;;;4.53;2.63;;;9.10;99.90;;;;;;4861461;29;20194;-68
2023/11/04 01:58:45;;;;;;;3.42;2.60;;;9.10;99.90;;;;;;4848693;29;20186;-64
2023/11/04 02:01:34;;;;;;;4.28;2.65;;;9.10;99.90;;;;;;4848996;29;20241;-66
2023/11/04 02:04:20;;;;;;;4.68;2.50;;;9.10;99.90;;;;;;4861248;29;20289;-64
2023/11/04 02:07:07;;;;;;;4.00;2.40;;;9.10;99.90;;;;;;4873977;29;20264;-66
2023/11/04 02:09:53;;;;;;;4.22;2.88;;;9.10;99.90;;;;;;4861092;29;20361;-63
2023/11/04 02:12:38;;;;;;;7.18;2.78;;;9.10;99.90;;;;;;4848183;29;20190;-66
2023/11/04 02:15:24;;;;;;;5.63;2.92;;;9.10;99.90;;;;;;4860932;29;20285;-62
2023/11/04 02:18:10;;;;;;;4.65;2.83;;;9.10;99.90;;;;;;4848543;29;20198;-63
2023/11/04 02:21:00;;;;;;;4.90;2.50;;;9.10;99.90;;;;;;4860922;29;20265;-65
2023/11/04 02:23:46;;;;;;;4.35;2.63;;;9.20;99.90;;;;;;4848136;29;20667;-64
2023/11/04 02:26:32;;;;;;;4.78;2.72;;;9.20;99.90;;;;;;4861066;29;20209;-66
2023/11/04 02:29:18;;;;;;;4.50;3.10;;;9.20;99.90;;;;;;4848417;29;20194;-63
2023/11/04 02:32:04;;;;;;;5.18;3.03;;;9.20;99.90;;;;;;4861053;29;20660;-66
2023/11/04 02:34:50;;;;;;;3.90;2.83;;;9.20;99.90;;;;;;4861312;29;20190;-61
2023/11/04 02:37:36;;;;;;;4.10;2.97;;;9.30;99.90;;;;;;4848560;29;20258;-66
2023/11/04 02:40:21;;;;;;;5.32;2.90;;;9.30;99.90;;;;;;4861061;29;20197;-63
2023/11/04 02:43:08;;;;;;;5.55;3.20;;;9.30;99.90;;;;;;4861270;29;20284;-62
2023/11/04 02:45:54;;;;;;;7.68;3.83;;;9.30;99.90;;;;;;4860588;29;20198;-62
2023/11/04 02:48:40;;;;;;;6.68;3.67;;;9.30;99.90;;;;;;4860436;29;20206;-61
2023/11/04 02:51:25;;;;;;;5.22;3.35;;;9.30;99.90;;;;;;4847837;29;20205;-68
2023/11/04 02:54:12;;;;;;;6.80;3.65;;;9.30;99.90;;;;;;4846829;29;20208;-66
2023/11/04 02:56:58;;;;;;;6.20;3.90;;;9.30;99.90;;;;;;4860477;29;20293;-62
2023/11/04 02:59:43;;;;;;;4.03;3.28;;;9.40;99.90;;;;;;4847476;29;20283;-63
2023/11/04 03:02:30;;;;;;;4.50;3.00;;;9.40;99.90;;;;;;4847468;29;20310;-65
2023/11/04 03:05:16;;;;;;;5.53;3.40;;;9.40;99.90;;;;;;4847409;29;20542;-67
2023/11/04 03:08:01;;;;;;;10.05;3.80;;;9.40;99.90;;;;;;4847359;29;20250;-62
2023/11/04 03:10:47;;;;;;;4.72;3.60;;;9.40;99.90;;;;;;4847295;29;20193;-65
2023/11/04 03:13:33;;;;;;;6.35;3.58;;;9.50;99.90;;;;;;4860426;29;20220;-62
2023/11/04 03:16:20;;;;;;;8.45;3.67;;;9.50;99.90;;;;;;4847396;29;20265;-63
2023/11/04 03:19:06;;;;;;;9.88;4.00;;;9.50;99.90;;;;;;4860400;29;20583;-65
2023/11/04 03:21:52;;;;;;;6.72;3.67;;;9.50;99.90;;;;;;4846820;29;20293;-61
2023/11/04 03:24:45;;;;;;;7.72;3.38;;;9.50;99.90;;;;;;4859991;29;20193;-64
2023/11/04 03:27:31;;;;;;;6.30;3.97;;;9.60;99.90;;;;;;4860081;29;20659;-65
2023/11/04 03:30:17;;;;;;;5.35;3.60;;;9.60;99.90;;;;;;4846959;29;20638;-63
2023/11/04 03:33:03;;;;;;;9.23;4.10;;;9.60;99.90;;;;;;4860603;29;20197;-63
2023/11/04 03:35:49;;;;;;;7.38;4.30;;;9.60;99.90;;;;;;4859613;29;20219;-65
2023/11/04 03:38:35;;;;;;;7.15;4.25;;;9.60;99.90;;;;;;4846948;29;20229;-62
2023/11/04 03:41:22;;;;;;;6.50;4.20;;;9.60;99.90;;;;;;4859688;29;20225;-62
2023/11/04 03:44:08;;;;;;;7.15;4.30;;;9.60;99.90;;;;;;4859614;29;20202;-66
2023/11/04 03:46:56;;;;;;;9.13;3.80;;;9.70;99.90;;;;;;4847076;29;20201;-61
2023/11/04 03:49:42;;;;;;;7.72;3.97;;;9.60;99.90;;;;;;4859570;29;20202;-67
2023/11/04 03:52:28;;;;;;;9.55;4.50;;;9.70;99.90;;;;;;4858944;29;20210;-66
2023/11/04 03:55:14;;;;;;;9.65;4.43;;;9.60;99.90;;;;;;4859781;29;20205;-62
2023/11/04 03:58:00;;;;;;;7.93;4.32;;;9.70;99.90;;;;;;4859024;29;20204;-63
2023/11/04 04:00:46;;;;;;;7.72;4.68;;;9.70;99.90;;;;;;4859440;29;20245;-66
2023/11/04 04:03:32;;;;;;;13.10;4.93;;;9.70;99.90;;;;;;4859602;29;20244;-66
2023/11/04 04:06:18;;;;;;;8.88;4.93;;;9.60;99.90;;;;;;4858696;29;20245;-67
2023/11/04 04:09:03;;;;;;;10.30;4.70;;;9.60;99.90;;;;;;4847110;29;20198;-64
2023/11/04 04:11:50;;;;;;;10.93;5.03;;;9.60;99.90;;;;;;4859281;29;20205;-66
2023/11/04 04:14:36;;;;;;;9.02;4.70;;;9.60;99.90;;;;;;4859158;29;20522;-62
2023/11/04 04:17:21;;;;;;;8.48;4.43;;;9.60;99.90;;;;;;4859306;29;20196;-66
2023/11/04 04:20:08;;;;;;;9.15;4.53;;;9.60;99.90;;;;;;4859250;29;20261;-64
2023/11/04 04:22:53;;;;;;;11.18;4.70;;;9.60;99.90;;;;;;4858916;29;20209;-63
2023/11/04 04:25:40;;;;;;;6.95;4.80;;;9.60;99.90;;;;;;4859514;29;20221;-68
2023/11/04 04:28:26;;;;;;;9.32;4.93;;;9.60;99.90;;;;;;4858975;29;20202;-64
2023/11/04 04:31:12;;;;;;;10.75;4.88;;;9.60;99.90;;;;;;4859204;29;20284;-65
2023/11/04 04:33:58;;;;;;;5.15;4.32;;;9.60;99.90;;;;;;4871351;29;20198;-63
2023/11/04 04:36:47;;;;;;;9.60;4.40;;;9.60;99.90;;;;;;4858822;29;20190;-66
2023/11/04 04:39:33;;;;;;;8.93;4.75;;;9.70;99.90;;;;;;4859155;29;20257;-61
2023/11/04 04:42:19;;;;;;;7.47;4.55;;;9.70;99.90;;;;;;4858884;29;20347;-61
2023/11/04 04:45:05;;;;;;;9.68;4.47;;;9.70;99.90;;;;;;4859427;29;20611;-66
2023/11/04 04:47:51;;;;;;;7.28;4.72;;;9.70;99.90;;;;;;4871948;29;20186;-68
2023/11/04 04:50:37;;;;;;;8.35;4.40;;;9.80;99.90;;;;;;4858987;29;20202;-64
2023/11/04 04:53:23;;;;;;;9.18;4.50;;;9.70;99.90;;;;;;4858998;29;20205;-62
2023/11/04 04:56:09;;;;;;;12.52;4.78;;;9.70;99.90;;;;;;4846248;29;20214;-63
2023/11/04 04:58:55;;;;;;;11.90;4.72;;;9.80;99.90;;;;;;4845893;29;20246;-61
2023/11/04 05:01:41;;;;;;;6.57;5.00;;;9.80;99.90;;;;;;4858939;29;20222;-65
2023/11/04 05:04:27;;;;;;;8.65;5.35;;;9.80;99.90;;;;;;4858533;29;20201;-63
2023/11/04 05:07:13;;;;;;;9.35;5.05;;;9.80;99.90;;;;;;4858095;29;20311;-65
2023/11/04 05:10:00;;;;;;;10.43;5.32;;;9.80;99.90;;;;;;4858646;29;20209;-67
2023/11/04 05:12:46;;;;;;;10.45;5.38;;;9.90;99.90;;;;;;4858784;29;20202;-65
2023/11/04 05:15:32;;;;;;;10.00;5.38;;;9.90;99.90;;;;;;4858561;29;20213;-66
2023/11/04 05:18:18;;;;;;;8.55;5.22;;;9.90;99.90;;;;;;4861543;29;20198;-65
2023/11/04 05:21:04;;;;;;;12.00;5.35;;;9.90;99.90;;;;;;4849077;29;20234;-63
2023/11/04 05:23:50;;;;;;;14.60;6.00;;;9.90;99.90;;;;;;4861906;29;20193;-61
2023/11/04 05:26:43;;;;;;;10.70;5.60;;;9.90;99.90;;;;;;4862182;29;20202;-63
2023/11/04 05:29:30;;;;;;;10.95;5.82;;;9.90;99.90;;;;;;4861938;29;20285;-66
2023/11/04 05:32:17;;;;;;;9.52;5.88;;;9.90;99.90;;;;;;4862549;29;20182;-65
2023/11/04 05:35:03;;;;;;;8.50;5.40;;;10.00;99.90;;;;;;4849230;29;20555;-65
2023/11/04 05:37:49;;;;;;;8.85;5.30;;;10.00;99.90;;;;;;4849255;29;20702;-65
2023/11/04 05:40:36;;;;;;;7.60;5.22;;;10.00;99.90;;;;;;4861902;29;20663;-67
2023/11/04 05:43:21;;;;;;;8.35;5.20;;;10.00;99.90;;;;;;4861863;29;20198;-65
2023/11/04 05:46:08;;;;;;;9.85;5.35;;;10.00;99.90;;;;;;4849480;29;20637;-62
2023/11/04 05:48:54;;;;;;;10.07;5.53;;;10.00;99.90;;;;;;4862082;29;20647;-63
2023/11/04 05:51:40;;;;;;;8.48;5.18;;;10.00;99.90;;;;;;4861979;29;20221;-63
2023/11/04 05:54:25;;;;;;;11.35;5.63;;;10.00;99.90;;;;;;4861612;29;20205;-63
2023/11/04 05:57:11;;;;;;;8.35;5.18;;;10.00;99.90;;;;;;4861696;29;20205;-61
2023/11/04 05:59:57;;;;;;;9.00;5.70;;;10.00;99.90;;;;;;4848792;29;20193;-67
2023/11/04 06:02:45;;;;;;;9.95;5.30;;;10.00;99.90;;;;;;4861401;29;20217;-62
2023/11/04 06:05:31;;;;;;;8.45;5.18;;;10.00;99.90;;;;;;4848587;29;20241;-64
2023/11/04 06:08:17;;;;;;;9.27;5.05;;;10.00;99.90;;;;;;4861746;29;20198;-64
2023/11/04 06:11:03;;;;;;;7.13;5.20;;;10.10;99.90;;;;;;4861416;29;20229;-66
2023/11/04 06:13:49;;;;;;;9.23;5.60;;;10.10;99.90;;;;;;4862100;29;20538;-63
2023/11/04 06:16:35;;;;;;;11.07;5.53;;;10.10;99.90;;;;;;4861944;29;20304;-64
2023/11/04 06:19:22;;;;;;;6.97;5.47;;;10.10;99.90;;;;;;4848636;29;20186;-63
2023/11/04 06:22:07;;;;;;;11.20;5.50;;;10.10;99.90;;;;;;4861347;29;20217;-66
2023/11/04 06:24:53;;;;;;;11.48;5.22;;;10.10;99.90;;;;;;4861337;29;20213;-62
2023/11/04 06:27:39;;;;;;;10.52;4.90;;;10.20;99.90;;;;;;4861382;29;20197;-62
2023/11/04 06:30:25;;;;;;;8.48;4.90;;;10.10;99.90;;;;;;4861372;29;20594;-68
2023/11/04 06:33:12;;;;;;;5.65;4.65;;;10.10;99.90;;;;;;4861376;29;20198;-67
2023/11/04 06:35:58;;;;;;;7.28;4.82;;;10.20;99.90;;;;;;4861068;29;20233;-63
2023/11/04 06:38:44;;;;;;;13.20;5.10;;;10.20;99.90;;;;;;4860847;29;20206;-62
2023/11/04 06:41:30;;;;;;;9.30;4.60;;;10.20;99.90;;;;;;4860935;29;20617;-66
2023/11/04 06:44:17;;;;;;;8.93;4.95;;;10.20;99.90;;;;;;4862090;29;20231;-64
2023/11/04 06:47:03;;;;;;;11.55;5.30;;;10.20;99.90;;;;;;4861199;29;20186;-64
2023/11/04 06:49:49;;;;;;;7.90;5.10;;;10.20;99.90;;;;;;4860672;29;20397;-71
2023/11/04 06:52:35;;;;;;;9.70;5.00;;;10.20;99.90;;;;;;4860833;29;20209;-65
2023/11/04 06:55:01;;;;;;;8.35;5.22;;;10.20;99.90;;;;;;4861288;29;20186;-62
2023/11/04 06:57:33;;;;;;;10.68;5.80;;;10.30;99.90;;;;;;4861620;29;20221;-63
2023/11/04 06:59:59;;;;;;;11.65;6.13;;;10.30;99.90;;;;;;4861031;29;20698;-63
2023/11/04 07:02:25;;;;;;;7.95;5.18;;;10.30;99.90;;;;;;4860401;29;20547;-65
2023/11/04 07:04:51;;;;;;;9.25;4.75;;;10.30;99.90;;;;;;4861536;29;20186;-65
2023/11/04 07:07:17;;;;;;;7.75;4.70;;;10.30;99.90;;;;;;4859551;29;20313;-65
2023/11/04 07:09:43;;;;;;;8.60;5.15;;;10.30;99.90;;;;;;4875422;29;20650;-63
2023/11/04 07:12:09;;;;;;;8.40;5.25;;;10.30;99.90;;;;;;4860983;29;20320;-65
2023/11/04 07:14:35;;;;;;;7.50;4.82;;;10.40;99.90;;;;;;4860536;29;20662;-67
2023/11/04 07:17:01;;;;;;;9.32;5.75;;;10.40;99.90;;;;;;4859427;29;20596;-66
2023/11/04 07:19:27;;;;;;;7.90;4.97;;;10.40;99.90;;;;;;4861263;29;20186;-65
2023/11/04 07:21:53;;;;;;;7.65;4.57;;;10.40;99.90;;;;;;4860539;29;20218;-64
2023/11/04 07:24:19;;;;;;;9.20;5.05;;;10.40;99.90;;;;;;4860559;29;20182;-65
2023/11/04 07:26:46;;;;;;;9.85;4.97;;;10.40;99.90;;;;;;4860675;29;20290;-63
2023/11/04 07:29:12;;;;;;;8.18;5.07;;;10.40;99.90;;;;;;4859489;29;20183;-69
2023/11/04 07:31:38;;;;;;;8.05;5.20;;;10.40;99.90;;;;;;4860652;29;20666;-62
2023/11/04 07:34:04;;;;;;;9.05;4.70;;;10.40;99.90;;;;;;4874690;29;20182;-62
2023/11/04 07:36:30;;;;;;;8.40;5.05;;;10.40;99.90;;;;;;4860193;29;20201;-62
2023/11/04 07:38:56;;;;;;;7.53;4.65;;;10.40;99.90;;;;;;4860661;29;20186;-63
2023/11/04 07:41:22;;;;;;;7.38;4.85;;;10.40;99.90;;;;;;4860048;29;20256;-65
2023/11/04 07:43:48;;;;;;;7.65;4.57;;;10.50;99.90;;;;;;4860895;29;20582;-62
2023/11/04 07:46:14;;;;;;;5.60;4.40;;;10.50;99.90;;;;;;4860335;29;20182;-63
2023/11/04 07:48:40;;;;;;;8.43;5.00;;;10.50;99.90;;;;;;4860302;29;20212;-61
2023/11/04 07:51:10;;;;;;;10.75;6.07;;;10.50;99.90;;;;;;4858953;29;20194;-67
2023/11/04 07:53:36;;;;;;;6.50;4.60;;;10.50;99.90;;;;;;4859597;29;20182;-66
2023/11/04 07:56:02;;;;;;;8.93;4.75;;;10.60;99.90;;;;;;4874511;29;20197;-63
2023/11/04 07:58:28;;;;;;;8.50;4.55;;;10.50;99.90;;;;;;4860554;29;20197;-63
2023/11/04 08:00:54;;;;;;;6.95;4.28;;;10.60;99.90;;;;;;4860413;29;20213;-66
2023/11/04 08:03:20;;;;;;;10.98;4.40;;;10.60;99.90;;;;;;4860600;29;20237;-66
2023/11/04 08:05:46;;;;;;;7.53;4.55;;;10.60;99.90;;;;;;4859696;29;20686;-66
2023/11/04 08:08:14;;;;;;;10.82;4.70;;;10.70;99.90;;;;;;4859629;29;20190;-64
2023/11/04 08:10:40;;;;;;;7.55;4.53;;;10.80;99.90;;;;;;4859990;29;20239;-63
2023/11/04 08:13:06;;;;;;;7.38;4.53;;;10.80;99.90;;;;;;4859636;29;20189;-63
2023/11/04 08:15:32;;;;;;;7.43;4.40;;;10.90;99.90;;;;;;4859775;29;20186;-65
2023/11/04 08:17:59;;;;;;;10.35;6.10;;;10.90;99.90;;;;;;4859737;29;20261;-67
2023/11/04 08:20:25;;;;;;;12.85;4.57;;;10.90;99.90;;;;;;4859806;29;20190;-65
2023/11/04 08:22:51;;;;;;;6.65;4.60;;;10.90;99.90;;;;;;4859607;29;20214;-64
2023/11/04 08:25:17;;;;;;;5.55;4.10;;;10.90;99.90;;;;;;4859682;29;20306;-65
2023/11/04 08:27:43;;;;;;;8.52;4.20;;;10.90;99.90;;;;;;4860214;29;20189;-66
2023/11/04 08:30:10;;;;;;;5.20;4.35;;;10.80;99.90;;;;;;4859986;29;20645;-66
2023/11/04 08:32:36;;;;;;;6.57;4.63;;;10.80;99.90;;;;;;4858546;29;20186;-66
2023/11/04 08:35:04;;;;;;;6.82;4.53;;;10.80;99.90;;;;;;4859627;29;20604;-63
2023/11/04 08:37:30;;;;;;;10.23;4.70;;;10.70;99.90;;;;;;4859812;29;20233;-65
2023/11/04 08:39:57;;;;;;;6.07;4.45;;;10.70;99.90;;;;;;4859394;29;20213;-66
2023/11/04 08:42:23;;;;;;;7.43;4.68;;;10.70;99.90;;;;;;4859786;29;20216;-62
2023/11/04 08:44:49;;;;;;;6.63;4.75;;;10.70;99.90;;;;;;4859471;29;20186;-66
2023/11/04 08:47:16;;;;;;;12.27;4.70;;;10.70;99.90;;;;;;4858789;29;20608;-63
2023/11/04 08:49:43;;;;;;;6.10;4.60;;;10.70;99.90;;;;;;4859551;29;20226;-62
2023/11/04 08:52:09;;;;;;;7.25;4.63;;;10.80;99.90;;;;;;4859932;29;20205;-62
2023/11/04 08:54:35;;;;;;;7.43;3.90;;;10.80;99.90;;;;;;4877358;29;20226;-63
2023/11/04 08:57:01;;;;;;;7.50;4.43;;;10.90;99.90;;;;;;4862172;29;20269;-64
2023/11/04 08:59:27;;;;;;;7.53;4.20;;;11.00;99.90;;;;;;4862505;29;20194;-64
2023/11/04 09:01:53;;;;;;;5.68;4.13;;;11.10;99.90;;;;;;4877753;29;20249;-64
2023/11/04 09:04:19;;;;;;;7.95;3.80;;;11.20;99.90;;;;;;4862883;29;20194;-65
2023/11/04 09:06:45;;;;;;;10.23;4.35;;;11.30;99.90;;;;;;4863278;29;20659;-67
2023/11/04 09:09:11;;;;;;;7.45;4.20;;;11.40;99.90;;;;;;4862733;29;20214;-63
2023/11/04 09:11:38;;;;;;;6.85;3.80;;;11.40;99.90;;;;;;4863251;29;20276;-67
2023/11/04 09:14:05;;;;;;;13.90;3.83;;;11.40;99.90;;;;;;4862066;29;20711;-64
2023/11/04 09:16:34;;;;;;;9.50;4.00;;;11.50;99.90;;;;;;4863098;29;20178;-69
2023/11/04 09:19:01;;;;;;;7.82;3.88;;;11.50;99.90;;;;;;4862455;29;20193;-64
2023/11/04 09:21:27;;;;;;;6.05;3.60;;;11.50;99.90;;;;;;4862521;29;20214;-66
2023/11/04 09:23:53;;;;;;;8.23;4.70;;;11.60;99.90;;;;;;4862598;29;20182;-67
2023/11/04 09:26:20;;;;;;;9.13;4.00;;;11.60;99.90;;;;;;4862761;29;20249;-67
2023/11/04 09:28:46;;;;;;;10.40;3.40;;;11.70;99.90;;;;;;4862558;29;20182;-67
2023/11/04 09:31:13;;;;;;;7.45;3.70;;;11.60;99.90;;;;;;4862309;29;20189;-64
2023/11/04 09:33:39;;;;;;;7.10;3.50;;;11.70;99.90;;;;;;4860966;29;20343;-68
2023/11/04 09:36:06;;;;;;;7.03;3.30;;;11.70;99.90;;;;;;4862091;29;20346;-65
2023/11/04 09:38:33;;;;;;;8.15;3.67;;;11.70;99.90;;;;;;4862392;29;20637;-62
2023/11/04 09:40:59;;;;;;;9.32;3.80;;;11.70;99.90;;;;;;4862644;29;20575;-65
2023/11/04 09:43:25;;;;;;;6.63;3.97;;;11.80;99.90;;;;;;4862350;29;20182;-66
2023/11/04 09:45:52;;;;;;;10.43;4.45;;;11.80;99.90;;;;;;4862326;29;20182;-65
2023/11/04 09:48:19;;;;;;;11.13;3.97;;;11.80;99.90;;;;;;4862623;29;20185;-65
2023/11/04 09:50:45;;;;;;;7.82;4.28;;;11.80;99.90;;;;;;4845735;29;20210;-64
2023/11/04 09:53:23;;;;;;;9.48;4.20;;;11.80;99.90;;;;;;4862701;29;20222;-64
2023/11/04 09:55:51;;;;;;;9.48;3.40;;;11.80;99.90;;;;;;4862105;29;20206;-63
2023/11/04 09:58:18;;;;;;;5.55;3.30;;;11.90;99.90;;;;;;4862550;29;20192;-63
2023/11/04 10:00:46;;;;;;;6.40;3.25;;;11.80;99.90;;;;;;4876414;29;20221;-66
2023/11/04 10:03:12;;;;;;;8.55;3.35;;;11.90;99.90;;;;;;4861512;29;20190;-64
2023/11/04 10:05:39;;;;;;;6.38;3.45;;;11.90;99.90;;;;;;4876369;29;20242;-64
2023/11/04 10:08:05;;;;;;;10.88;4.25;;;12.00;99.90;;;;;;4862235;29;20201;-62
2023/11/04 10:10:32;;;;;;;8.48;3.38;;;12.10;99.90;;;;;;4862210;29;20186;-67
2023/11/04 10:12:59;;;;;;;5.88;2.92;;;12.10;99.90;;;;;;4861874;29;20186;-67
2023/11/04 10:15:25;;;;;;;7.63;3.20;;;12.10;99.90;;;;;;4860684;29;20266;-66
2023/11/04 10:17:51;;;;;;;10.13;3.22;;;12.10;99.90;;;;;;4861425;29;20611;-62
2023/11/04 10:20:20;;;;;;;6.65;3.00;;;12.10;99.90;;;;;;4861417;29;20194;-63
2023/11/04 10:22:46;;;;;;;8.55;3.40;;;12.20;99.90;;;;;;4861713;29;20217;-67
2023/11/04 10:25:14;;;;;;;11.20;3.50;;;12.20;99.90;;;;;;4861538;29;20193;-62
2023/11/04 10:27:40;;;;;;;9.70;2.80;;;12.20;99.90;;;;;;4861159;29;20280;-66
2023/11/04 10:30:10;;;;;;;9.15;4.65;;;12.30;99.90;;;;;;4861459;29;20178;-67
2023/11/04 10:32:38;;;;;;;7.22;3.60;;;12.30;99.90;;;;;;4861559;29;20178;-66
2023/11/04 10:35:11;;;;;;;7.40;2.70;;;12.20;99.90;;;;;;4861748;29;20651;-64
2023/11/04 10:37:39;;;;;;;5.25;2.60;;;12.20;99.90;;;;;;4861645;29;20198;-64
2023/11/04 10:40:06;;;;;;;7.63;2.60;;;12.20;99.90;;;;;;4844275;29;20194;-64
2023/11/04 10:42:48;;;;;;;15.30;6.05;;;12.30;99.90;;;;;;4861790;29;20229;-67
2023/11/04 10:45:26;;;;;;;7.80;2.40;;;12.30;99.90;;;;;;4875634;29;20166;-65
2023/11/04 10:47:59;;;;;;;6.55;2.40;;;12.30;99.90;;;;;;4861125;29;20588;-67
2023/11/04 10:50:32;;;;;;;6.80;2.03;;;12.30;99.90;;;;;;4861602;29;20226;-69
2023/11/04 10:53:22;;;;;;;7.20;2.47;;;12.30;99.90;;;;;;4861381;29;20185;-65
2023/11/04 10:56:07;;;;;;;7.63;2.13;;;12.20;99.90;;;;;;4861122;29;20189;-64
2023/11/04 10:58:41;;;;;;;10.10;2.80;;;12.20;99.90;;;;;;4861079;29;20173;-64
2023/11/04 11:01:08;;;;;;;8.75;2.40;;;12.20;99.90;;;;;;4861069;29;20232;-66
2023/11/04 11:03:34;;;;;;;6.03;2.67;;;12.20;99.90;;;;;;4859564;29;20190;-66
2023/11/04 11:06:04;;;;;;;6.90;3.10;;;12.20;99.90;;;;;;4860757;29;20229;-68
2023/11/04 11:08:30;;;;;;;8.00;2.47;;;12.20;99.90;;;;;;4861119;29;20178;-67
2023/11/04 11:11:04;;;;;;;5.03;2.30;;;12.20;99.90;;;;;;4860741;29;20268;-65
2023/11/04 11:13:35;;;;;;;8.48;2.63;;;12.20;99.90;;;;;;4860103;29;20186;-64
2023/11/04 11:16:01;;;;;;;6.20;2.30;;;12.20;99.90;;;;;;4860614;29;20591;-63
2023/11/04 11:18:28;;;;;;;6.80;2.35;;;12.30;99.90;;;;;;4875126;29;20214;-67
2023/11/04 11:20:54;;;;;;;4.90;2.72;;;12.30;99.90;;;;;;4874770;29;20661;-64
2023/11/04 11:23:28;;;;;;;8.27;3.42;;;12.40;99.90;;;;;;4875053;29;20200;-67
2023/11/04 11:26:11;;;;;;;6.93;2.10;;;12.40;99.90;;;;;;4860453;29;20182;-63
2023/11/04 11:28:39;;;;;;;5.72;2.10;;;12.40;99.90;;;;;;4860729;29;20171;-65
2023/11/04 11:31:08;;;;;;;10.40;2.40;;;12.40;99.90;;;;;;4860266;29;20276;-65
2023/11/04 11:33:34;;;;;;;3.78;1.73;;;12.40;99.90;;;;;;4860308;29;20201;-63
2023/11/04 11:36:10;;;;;;;4.80;1.80;;;12.50;99.90;;;;;;4860693;29;20254;-65
2023/11/04 11:38:40;;;;;;;4.35;1.70;;;12.60;99.90;;;;;;4860234;29;20166;-65
2023/11/04 11:41:08;;;;;;;5.38;1.58;;;12.60;99.90;;;;;;4860484;29;20297;-66
2023/11/04 11:43:35;;;;;;;6.60;1.88;;;12.70;99.90;;;;;;4859953;29;20182;-69
2023/11/04 11:46:04;;;;;;;6.30;1.85;;;12.70;99.90;;;;;;4860095;29;20206;-65
2023/11/04 11:48:37;;;;;;;3.67;1.67;;;12.70;99.90;;;;;;4860143;29;20194;-64
2023/11/04 11:51:11;;;;;;;7.65;4.18;;;12.70;99.90;;;;;;4859900;29;20320;-67
2023/11/04 11:53:42;;;;;;;9.40;4.10;;;12.70;99.90;;;;;;4859815;29;20293;-64
2023/11/04 11:56:08;;;;;;;4.55;1.90;;;12.80;99.90;;;;;;4860168;29;20484;-62
2023/11/04 11:58:34;;;;;;;3.80;1.80;;;12.70;99.90;;;;;;4858956;29;20194;-69
2023/11/04 12:01:04;;;;;;;4.05;1.63;;;12.80;99.90;;;;;;4859992;29;20233;-64
2023/11/04 12:03:30;;;;;;;3.75;2.25;;;12.80;99.90;;;;;;4860174;29;20174;-62
2023/11/04 12:05:57;;;;;;;3.67;1.95;;;12.80;99.90;;;;;;4873610;29;20237;-63
2023/11/04 12:08:24;;;;;;;3.75;1.80;;;12.80;99.90;;;;;;4859638;29;20186;-63
2023/11/04 12:10:49;;;;;;;2.78;1.60;;;12.80;99.90;;;;;;4859515;29;20193;-65
2023/11/04 12:13:16;;;;;;;4.55;2.25;;;12.90;99.90;;;;;;4859618;29;20190;-64
2023/11/04 12:15:42;;;;;;;3.13;1.90;;;12.90;99.90;;;;;;4874204;29;20193;-62
2023/11/04 12:18:10;;;;;;;3.17;1.60;;;12.90;99.90;;;;;;4860184;29;20189;-63
2023/11/04 12:20:41;;;;;;;4.00;2.13;;;13.00;99.90;;;;;;4860197;29;20318;-63
2023/11/04 12:23:13;;;;;;;5.53;2.22;;;13.00;99.90;;;;;;4859959;29;20204;-69
2023/11/04 12:25:41;;;;;;;27.63;15.40;;;13.00;99.90;;;;;;4859718;29;20624;-64
2023/11/04 12:28:10;;;;;;;5.95;3.67;;;13.10;99.90;;;;;;4859510;29;20182;-67
2023/11/04 12:30:37;;;;;;;5.18;2.40;;;13.20;99.90;;;;;;4859837;29;20622;-68
2023/11/04 12:33:03;;;;;;;6.18;2.60;;;13.10;99.90;;;;;;4859217;29;20551;-65
2023/11/04 12:35:29;;;;;;;5.05;2.33;;;13.20;99.90;;;;;;4858247;29;20189;-62
2023/11/04 12:37:58;;;;;;;5.07;2.45;;;13.20;99.90;;;;;;4858017;29;20615;-65
2023/11/04 12:40:30;;;;;;;4.40;2.13;;;13.20;99.90;;;;;;4859595;29;20182;-64
2023/11/04 12:43:01;;;;;;;3.45;2.13;;;13.20;99.90;;;;;;4858174;29;20308;-63
2023/11/04 12:45:27;;;;;;;6.95;2.47;;;13.10;99.90;;;;;;4859270;29;20272;-61
2023/11/04 12:47:54;;;;;;;2.22;2.03;;;13.10;99.90;;;;;;4859052;29;20256;-71
2023/11/04 12:50:20;;;;;;;3.38;2.30;;;13.10;99.90;;;;;;4859448;29;20652;-63
2023/11/04 12:52:46;;;;;;;6.18;2.20;;;13.00;99.90;;;;;;4857706;29;20192;-63
2023/11/04 12:55:13;;;;;;;4.53;2.80;;;13.00;99.90;;;;;;4858836;29;20182;-67
2023/11/04 12:57:40;;;;;;;8.25;4.95;;;13.00;99.90;;;;;;4859175;29;20186;-62
2023/11/04 13:00:09;;;;;;;3.30;2.13;;;13.00;99.90;;;;;;4859448;29;20193;-63
2023/11/04 13:02:35;;;;;;;2.78;2.10;;;13.00;99.90;;;;;;4859252;29;20688;-62
2023/11/04 13:05:01;;;;;;;3.17;2.03;;;13.00;99.90;;;;;;4859357;29;20205;-61
2023/11/04 13:07:29;;;;;;;5.78;3.30;;;13.00;99.90;;;;;;4859269;29;20273;-67
2023/11/04 13:09:55;;;;;;;2.95;1.70;;;12.90;99.90;;;;;;4859500;29;20273;-67
2023/11/04 13:12:21;;;;;;;2.92;1.90;;;13.00;99.90;;;;;;4858210;29;20182;-62
2023/11/04 13:14:47;;;;;;;3.65;1.85;;;12.90;99.90;;;;;;4859136;29;20185;-64
2023/11/04 13:17:13;;;;;;;13.00;2.17;;;12.90;99.90;;;;;;4873442;29;20186;-68
2023/11/04 13:19:39;;;;;;;4.25;1.92;;;12.90;99.90;;;;;;4859377;29;20651;-63
2023/11/04 13:22:05;;;;;;;4.05;1.70;;;12.90;99.90;;;;;;4858725;29;20230;-64
2023/11/04 13:24:31;;;;;;;4.85;1.60;;;12.90;99.90;;;;;;4859235;29;20242;-63
2023/11/04 13:26:58;;;;;;;1.67;1.48;;;12.80;99.90;;;;;;4859154;29;20198;-66
2023/11/04 13:29:24;;;;;;;4.70;1.42;;;12.70;99.90;;;;;;4859257;29;20264;-65
2023/11/04 13:31:50;;;;;;;1.75;1.30;;;12.70;99.90;;;;;;4858892;29;20687;-62